• Join FlightAware (Why Join?)
  • Login
  • US Flag 
12:21PM EDT


 

Airport Tracker/Info


-or-


 

Live Flight TrackerFlight Track Log ✈ SWA1245 ✈ 24-Aug-2013 ✈ KDEN - KMHT

Flight Track Log - Related Links

Times and Time Zones

All times are in EDT time to prevent confusion due to time zone crossing. See the SWA1245 flight status page for this flight to view local times or setup timezone preferences in your user account.

Time Position Orientation Groundspeed Altitude Reporting Facility
EDT Latitude Longitude Course Direction KTS MPH feet Rate Location/Type
07:46PM 39.9317 -104.6625 72° East 209 241 7,100  Level Denver Center
07:47PM 39.9769 -104.6139 39° Northeast 241 277 8,800 2,040 Climbing Denver Center
07:48PM 40.0567 -104.5325 38° Northeast 296 341 11,300 2,160 Climbing Denver Center
07:49PM 40.1000 -104.4333 60° Northeast 350 403 13,200 1,980 Climbing Denver TRACON
07:50PM 40.0636 -104.3039 110° East 355 409 15,900 2,280 Climbing Denver Center
07:51PM 39.8820 -103.7387 72° East  Level FlightAware Approximate
07:51PM 40.0153 -104.1472 112° Southeast 379 436 18,600  Level Denver Center
07:52PM 39.9686 -103.9994 112° Southeast 406 467 21,000 2,280 Climbing Denver Center
07:53PM 39.9250 -103.8597 112° Southeast 416 479 23,300 1,980 Climbing Denver Center
07:54PM 39.8864 -103.7278 111° Southeast 425 489 25,100 1,680 Climbing Denver Center
07:55PM 39.9025 -103.5717 82° East 438 504 26,800 1,860 Climbing Denver Center
07:56PM 39.9239 -103.3756 82° East 455 524 29,000 1,680 Climbing Denver Center
07:57PM 39.9422 -103.2083 82° East 466 536 30,300 1,080 Climbing Denver Center
07:58PM 39.9625 -103.0356 81° East 482 555 31,300 1,140 Climbing Denver Center
07:59PM 39.9767 -102.8958 82° East 488 562 32,700 1,560 Climbing Denver Center
08:00PM 40.0011 -102.7228 79° East 487 560 34,500 1,440 Climbing Denver Center
08:01PM 40.0444 -102.5128 75° East 480 552 35,700 1,200 Climbing Denver Center
08:02PM 40.0814 -102.3294 75° East 470 541 37,000 600 Climbing Denver Center
08:03PM 40.1114 -102.1719 76° East 468 539 37,000  Level Denver Center
08:04PM 40.1419 -102.0117 76° East 473 544 37,000  Level Denver Center
08:06PM 40.1730 -101.8499 76° East  Level FlightAware Approximate
08:06PM 40.2100 -101.6656 76° East 476 548 37,000  Level Denver Center
08:08PM 40.2456 -101.4769 76° East 478 550 37,000  Level Denver Center
08:09PM 40.2769 -101.3150 76° East 481 554 37,000  Level Denver Center
08:10PM 40.3114 -101.1239 77° East 484 557 37,000  Level Denver Center
08:11PM 40.3425 -100.9600 76° East 486 559 37,000  Level Denver Center
08:12PM 40.3725 -100.7972 76° East 484 557 37,000  Level Denver Center
08:13PM 40.4019 -100.6344 77° East 483 556 37,000  Level Denver Center
08:14PM 40.4358 -100.4456 77° East 481 554 37,000  Level Denver Center
08:15PM 40.4697 -100.2575 77° East 477 549 37,000  Level Denver Center
08:16PM 40.4986 -100.0956 77° East 478 550 37,000  Level Denver Center
08:17PM 40.5319 -99.9058 77° East 480 552 37,000  Level Denver Center
08:18PM 40.5653 -99.7147 77° East 480 552 37,000  Level Denver Center
08:19PM 40.5942 -99.5425 77° East 484 557 37,000  Level Denver Center
08:20PM 40.6233 -99.3708 77° East 483 556 37,000  Level Denver Center
08:21PM 40.6583 -99.1636 77° East 485 558 37,000  Level Denver Center
08:22PM 40.6864 -98.9925 78° East 482 555 37,000  Level Denver Center
08:23PM 40.7147 -98.8206 78° East 484 557 37,000  Level Denver Center
08:24PM 40.7419 -98.6492 78° East 483 556 37,000  Level Denver Center
08:25PM 40.7697 -98.4786 78° East 482 555 37,000  Level Denver Center
08:27PM 40.8136 -98.2075 78° East 478 550 37,000  Level Minneapolis Center
08:28PM 40.8397 -98.0372 78° East 477 549 37,000  Level Minneapolis Center
08:29PM 40.8664 -97.8661 78° East 477 549 37,000  Level Minneapolis Center
08:30PM 40.8919 -97.6964 79° East 475 547 37,000  Level Minneapolis Center
08:31PM 40.9183 -97.5289 78° East 470 541 37,000  Level Minneapolis Center
08:32PM 40.9442 -97.3536 79° East 467 537 37,000  Level Minneapolis Center
08:33PM 40.9683 -97.1856 79° East 467 537 37,000  Level Minneapolis Center
08:34PM 40.9947 -97.0158 78° East 470 541 37,000  Level Minneapolis Center
08:35PM 41.0247 -96.8119 79° East 472 543 37,000  Level Minneapolis Center
08:36PM 41.0489 -96.6411 79° East 473 544 37,000  Level Minneapolis Center
08:37PM 41.0736 -96.4717 79° East 471 542 37,000  Level Minneapolis Center
08:38PM 41.0975 -96.3022 79° East 472 543 37,000  Level Minneapolis Center
08:39PM 41.1214 -96.1358 79° East 475 547 37,000  Level Minneapolis Center
08:40PM 41.1447 -95.9642 80° East 474 545 37,000  Level Minneapolis Center
08:41PM 41.1733 -95.7592 79° East 472 543 37,000  Level Minneapolis Center
08:42PM 41.1942 -95.5919 81° East 472 543 37,000  Level Minneapolis Center
08:43PM 41.2175 -95.4219 80° East 472 543 37,000  Level Minneapolis Center
08:44PM 41.2406 -95.2519 80° East 471 542 37,000  Level Minneapolis Center
08:45PM 41.2628 -95.0811 80° East 472 543 37,000  Level Minneapolis Center
08:46PM 41.2850 -94.9125 80° East 467 537 37,000  Level Minneapolis Center
08:47PM 41.3089 -94.7094 81° East 465 535 37,000  Level Minneapolis Center
08:48PM 41.3303 -94.5419 80° East 462 532 37,000  Level Minneapolis Center
08:49PM 41.3517 -94.3714 80° East 466 536 37,000  Level Minneapolis Center
08:50PM 41.3747 -94.1881 80° East 462 532 37,000  Level Minneapolis Center
08:51PM 41.3947 -94.0197 81° East 464 534 37,000  Level Minneapolis Center
08:52PM 41.4144 -93.8519 81° East 463 533 37,000  Level Minneapolis Center
08:53PM 41.4344 -93.6836 81° East 463 533 37,000  Level Minneapolis Center
08:54PM 41.4528 -93.5144 82° East 464 534 37,000  Level Minneapolis Center
08:55PM 41.4736 -93.3467 81° East 463 533 37,000  Level Minneapolis Center
08:56PM 41.4967 -93.1428 81° East 464 534 37,000  Level Minneapolis Center
08:58PM 41.5153 -92.9725 82° East 466 536 37,000  Level Minneapolis Center
08:59PM 41.5342 -92.8017 82° East 467 537 37,000  Level Minneapolis Center
09:00PM 41.5517 -92.6314 82° East 467 537 37,000  Level Minneapolis Center
09:00PM 41.5647 -92.5117 82° East 466 536 37,000  Level Chicago Center
09:01PM 41.5825 -92.3447 82° East 461 531 37,000  Level Chicago Center
09:02PM 41.5989 -92.1789 82° East 457 526 37,000  Level Chicago Center
09:03PM 41.6172 -92.0119 82° East 460 529 37,000  Level Chicago Center
09:04PM 41.6364 -91.8089 83° East 464 534 37,000  Level Chicago Center
09:05PM 41.6533 -91.6406 82° East 464 534 37,000  Level Chicago Center
09:06PM 41.6692 -91.4747 83° East 458 527 37,000  Level Chicago Center
09:07PM 41.6853 -91.3058 83° East 462 532 37,000  Level Chicago Center
09:08PM 41.7006 -91.1436 83° East 451 519 37,000  Level Chicago Center
09:09PM 41.7164 -90.9775 83° East 455 524 37,000  Level Chicago Center
09:10PM 41.7347 -90.7778 83° East 457 526 37,000  Level Chicago Center
09:11PM 41.7494 -90.6106 83° East 453 521 37,000  Level Chicago Center
09:13PM 41.7642 -90.4422 83° East 454 522 37,000  Level Chicago Center
09:14PM 41.7800 -90.2717 83° East 459 528 37,000  Level Chicago Center
09:15PM 41.7947 -90.0989 83° East 465 535 37,000  Level Chicago Center
09:16PM 41.8053 -89.9450 85° East 455 524 37,000  Level Chicago Center
09:17PM 41.8208 -89.7661 83° East 453 521 37,000  Level Chicago Center
09:18PM 41.8342 -89.6006 84° East 452 520 37,000  Level Chicago Center
09:19PM 41.8497 -89.4319 83° East 456 525 37,000  Level Chicago Center
09:20PM 41.8642 -89.2325 84° East 451 519 37,000  Level Chicago Center
09:21PM 41.8758 -89.0697 84° East 445 512 37,000  Level Chicago Center
09:22PM 41.8875 -88.9047 85° East 445 512 37,000  Level Chicago Center
09:23PM 41.9006 -88.7367 84° East 454 522 37,000  Level Chicago Center
09:24PM 41.9128 -88.5686 84° East 454 522 37,000  Level Chicago Center
09:25PM 41.9247 -88.3994 85° East 455 524 37,000  Level Chicago Center
09:26PM 41.9358 -88.2314 85° East 453 521 37,000  Level Chicago Center
09:27PM 41.9467 -88.0644 85° East 450 518 37,000  Level Chicago Center
09:28PM 41.9575 -87.8969 85° East 449 517 37,000  Level Chicago Center
09:29PM 41.9678 -87.7297 85° East 449 517 37,000  Level Chicago Center
09:30PM 41.9806 -87.5311 85° East 446 513 37,000  Level Chicago Center
09:31PM 41.9903 -87.3664 85° East 445 512 37,000  Level Chicago Center
09:32PM 41.9997 -87.2017 86° East 444 511 37,000  Level Chicago Center
09:33PM 42.0103 -87.0383 85° East 442 509 37,000  Level Chicago Center
09:34PM 42.0189 -86.8722 86° East 445 512 37,000  Level Chicago Center
09:35PM 42.0275 -86.7067 86° East 447 514 37,000  Level Chicago Center
09:36PM 42.0378 -86.5292 85° East 450 518 37,000  Level Chicago Center
09:37PM 42.0458 -86.3611 86° East 451 519 37,000  Level Chicago Center
09:38PM 42.0542 -86.1928 86° East 450 518 37,000  Level Chicago Center
09:39PM 42.0628 -86.0239 86° East 451 519 37,000  Level Chicago Center
09:40PM 42.0703 -85.8700 86° East 449 517 37,000  Level Chicago Center
09:41PM 42.0772 -85.7053 87° East 447 514 37,000  Level Chicago Center
09:42PM 42.0867 -85.5039 86° East 452 520 37,000  Level Chicago Center
09:43PM 42.0947 -85.3356 86° East 454 522 37,000  Level Chicago Center
09:44PM 42.1017 -85.1689 87° East 451 519 37,000  Level Chicago Center
09:45PM 42.1086 -85.0033 87° East 448 516 37,000  Level Chicago Center
09:46PM 42.1150 -84.8378 87° East 445 512 37,000  Level Chicago Center
09:47PM 42.1206 -84.6733 87° East 443 510 37,000  Level Chicago Center
09:48PM 42.1269 -84.5078 87° East 444 511 37,000  Level Chicago Center
09:49PM 42.1328 -84.3414 87° East 446 513 37,000  Level Chicago Center
09:50PM 42.1383 -84.1294 88° East 448 516 37,000  Level Cleveland Center
09:51PM 42.1436 -83.9617 88° East 450 518 37,000  Level Cleveland Center
09:52PM 42.1472 -83.7967 88° East 446 513 37,000  Level Cleveland Center
09:53PM 42.1514 -83.6333 88° East 447 514 37,000  Level Cleveland Center
09:54PM 42.1550 -83.4492 88° East 443 510 37,000  Level Cleveland Center
09:55PM 42.1608 -83.2836 87° East 439 505 37,000  Level Cleveland Center
09:56PM 42.1647 -83.1200 88° East 433 498 37,000  Level Cleveland Center
09:57PM 42.1692 -82.9594 88° East 433 498 37,000  Level Cleveland Center
09:59PM 42.1717 -82.7997 89° East 430 495 37,000  Level Cleveland Center
10:00PM 42.1747 -82.6392 88° East 431 496 37,000  Level Cleveland Center
10:01PM 42.1789 -82.4781 88° East 432 497 37,000  Level Cleveland Center
10:02PM 42.1808 -82.3175 89° East 430 495 37,000  Level Cleveland Center
10:03PM 42.1833 -82.1569 89° East 430 495 37,000  Level Cleveland Center
10:04PM 42.1853 -81.9797 89° East 432 497 37,000  Level Cleveland Center
10:05PM 42.1875 -81.8175 89° East 428 493 37,000  Level Cleveland Center
10:06PM 42.1894 -81.6569 89° East 425 489 37,000  Level Cleveland Center
10:07PM 42.1914 -81.4969 89° East 423 487 37,000  Level Cleveland Center
10:08PM 42.1922 -81.3375 90° East 422 486 37,000  Level Cleveland Center
10:09PM 42.1936 -81.1783 89° East 420 483 37,000  Level Cleveland Center
10:10PM 42.1944 -81.0200 90° East 419 482 37,000  Level Cleveland Center
10:11PM 42.2022 -80.8617 86° East 419 482 37,000  Level Cleveland Center
10:12PM 42.2206 -80.7067 81° East 415 478 37,000  Level Cleveland Center
10:13PM 42.2394 -80.5547 80° East 410 472 37,000  Level Cleveland Center
10:14PM 42.2575 -80.3994 81° East 414 476 37,000  Level Cleveland Center
10:15PM 42.2747 -80.2431 81° East 417 480 37,000  Level Cleveland Center
10:16PM 42.2933 -80.0869 81° East 417 480 37,000  Level Cleveland Center
10:17PM 42.3100 -79.9381 81° East 417 480 37,000  Level Cleveland Center
10:18PM 42.3261 -79.7850 82° East 415 478 37,000  Level Cleveland Center
10:19PM 42.3436 -79.6289 81° East 418 481 37,000  Level Cleveland Center
10:20PM 42.3603 -79.4764 82° East 414 476 37,000  Level Cleveland Center
10:21PM 42.3794 -79.2919 82° East 415 478 37,000  Level Cleveland Center
10:22PM 42.3950 -79.1394 82° East 412 474 37,000  Level Cleveland Center
10:23PM 42.4114 -78.9875 82° East 413 475 37,000  Level Cleveland Center
10:24PM 42.4247 -78.8508 82° East 408 470 37,000  Level Cleveland Center
10:25PM 42.4397 -78.6992 82° East 407 468 37,000  Level Cleveland Center
10:26PM 42.4556 -78.5469 82° East 410 472 37,000  Level Cleveland Center
10:27PM 42.4708 -78.3981 82° East 404 465 37,000  Level Cleveland Center
10:28PM 42.4883 -78.2158 83° East 407 468 37,000  Level Cleveland Center
10:29PM 42.5022 -78.0661 83° East 404 465 37,000  Level Cleveland Center
10:30PM 42.5158 -77.9150 83° East 406 467 37,000  Level Cleveland Center
10:31PM 42.5275 -77.7872 83° East 408 470 37,000  Level Cleveland Center
10:32PM 42.5439 -77.6033 83° East 411 473 37,000  Level Cleveland Center
10:33PM 42.5586 -77.4497 83° East 412 474 37,000  Level Cleveland Center
10:34PM 42.5694 -77.3144 84° East 409 471 37,000  Level Cleveland Center
10:35PM 42.5806 -77.1631 84° East 407 468 37,000  Level Cleveland Center
10:36PM 42.5925 -77.0117 84° East 407 468 37,000  Level Cleveland Center
10:37PM 42.6031 -76.8594 85° East 406 467 37,000  Level Cleveland Center
10:38PM 42.6108 -76.7678 83° East 408 470 37,000 -360 Level Boston Center
10:39PM 42.6217 -76.6161 84° East 407 468 36,500 -780 Descending Boston Center
10:40PM 42.6328 -76.4597 84° East 416 479 35,500 -1,080 Descending Boston Center
10:41PM 42.6458 -76.2672 85° East 426 490 34,400 -1,080 Descending Boston Center
10:42PM 42.6564 -76.1208 84° East 431 496 33,400 -960 Descending Boston Center
10:43PM 42.6661 -75.9567 85° East 437 503 32,500 -960 Descending Boston Center
10:44PM 42.6758 -75.7944 85° East 435 501 31,500 -960 Descending Boston Center
10:45PM 42.6869 -75.6311 85° East 437 503 30,600 -960 Descending Boston Center
10:46PM 42.6967 -75.4639 85° East 446 513 29,600 -840 Descending Boston Center
10:47PM 42.7061 -75.2911 86° East 460 529 29,000 -300 Descending Boston Center
10:48PM 42.7186 -75.0814 85° East 467 537 29,000  Level Boston Center
10:49PM 42.7272 -74.9125 86° East 455 524 29,000  Level Boston Center
10:50PM 42.7367 -74.7436 86° East 451 519 29,000  Level Boston Center
10:51PM 42.7456 -74.5744 86° East 451 519 29,000  Level Boston Center
10:52PM 42.7539 -74.4039 86° East 453 521 29,000  Level Boston Center
10:53PM 42.7639 -74.2333 85° East 454 522 29,000  Level Boston Center
10:54PM 42.7717 -74.0547 87° East 454 522 29,000  Level Boston Center
10:55PM 42.7797 -73.8856 86° East 447 514 29,000  Level Boston Center
10:56PM 42.7878 -73.7139 86° East 453 521 29,000  Level Boston Center
10:57PM 42.7961 -73.5450 86° East 449 517 29,000  Level Boston Center
10:58PM 42.8086 -73.3767 84° East 446 513 29,000 -720 Level Boston Center
10:59PM 42.8211 -73.2061 84° East 448 516 27,600 -2,340 Descending Boston Center
11:00PM 42.8328 -73.0389 85° East 441 507 24,300 -3,180 Descending Boston Center
11:01PM 42.8436 -72.8831 85° East 437 503 21,300 -3,180 Descending Boston Center
11:02PM 42.8547 -72.7114 85° East 428 493 18,000 -2,880 Descending Boston Center
11:03PM 42.8658 -72.5558 84° East 412 474 15,400 -2,580 Descending Boston Center
11:04PM 42.8753 -72.4081 85° East 393 452 12,800 -2,520 Descending Boston Center
11:05PM 42.8847 -72.2583 85° East 373 429 10,500 -1,440 Descending Boston Center
11:06PM 42.8908 -72.1361 86° East 326 375 10,000 -780 Descending Boston Center
11:07PM 42.8972 -72.0300 85° East 287 330 9,000 -1,140 Descending Boston Center
11:08PM 42.8911 -71.9333 95° East 262 302 7,800 -1,500 Descending Boston Center
11:09PM 42.8850 -71.8369 95° East 259 298 6,000 -1,980 Descending Boston Center
11:10PM 42.8789 -71.7347 95° East 255 293 3,900 -1,920 Descending Boston Center
11:11PM 42.8722 -71.6417 96° East 249 287 2,200 -960 Descending Boston Center
11:12PM 42.8667 -71.5608 95° East 210 242 2,000 -300 Descending Boston Center
11:13PM 42.8786 -71.5108 72° East 151 174 1,600 -600 Descending Boston Center
11:14PM 42.9089 -71.4722 43° Northeast 150 173 800 -660 Descending Boston Center
11:15PM 42.9358 -71.4386 42° Northeast 150 173 300 -540 Descending Boston Center
11:17PM 42.9328 -71.4358 90° East  Level Estimated